createdAt,value
2018-02-14T00:01:53.367Z,94360.25
2018-02-14T00:04:20.924Z,94359.92
2018-02-14T00:06:48.722Z,94359.22
2018-02-14T00:09:16.493Z,94343.16
2018-02-14T00:11:44.101Z,94347.86
2018-02-14T00:14:12.086Z,94345.17
2018-02-14T00:16:39.885Z,94348.81
2018-02-14T00:19:08.772Z,94351.77
2018-02-14T00:21:36.407Z,94343.14
2018-02-14T00:24:04.019Z,94338.36
2018-02-14T00:26:31.716Z,94332.63
2018-02-14T00:28:59.558Z,94341.27
2018-02-14T00:31:27.164Z,94334.88
2018-02-14T00:33:55.042Z,94334.23
2018-02-14T00:36:22.946Z,94334.75
2018-02-14T00:38:50.584Z,94329.64
2018-02-14T00:41:18.362Z,94340.07
2018-02-14T00:43:46.131Z,94335.64
2018-02-14T00:46:13.777Z,94320.52
2018-02-14T00:48:41.534Z,94326.03
2018-02-14T00:51:09.574Z,94311.23
2018-02-14T00:53:37.412Z,94312.38
2018-02-14T00:56:05.207Z,94308.37
2018-02-14T00:58:32.783Z,94302.31
2018-02-14T01:01:00.533Z,94305.95
2018-02-14T01:03:28.143Z,94309.33
2018-02-14T01:05:55.969Z,94314.45
2018-02-14T01:08:23.747Z,94315.63
2018-02-14T01:10:51.344Z,94314.55
2018-02-14T01:13:18.977Z,94316.73
2018-02-14T01:15:46.690Z,94305.45
2018-02-14T01:18:14.308Z,94320.05
2018-02-14T01:20:44.096Z,94312.97
2018-02-14T01:23:11.714Z,94307.16
2018-02-14T01:25:40.488Z,94290.89
2018-02-14T01:28:08.480Z,94294.50
2018-02-14T01:30:36.071Z,94307.03
2018-02-14T01:33:04.185Z,94318.45
2018-02-14T01:35:33.150Z,94312.84
2018-02-14T01:38:00.939Z,94306.12
2018-02-14T01:40:29.445Z,94307.47
2018-02-14T01:42:57.065Z,94305.98
2018-02-14T01:45:24.828Z,94301.66
2018-02-14T01:47:52.409Z,94291.03
2018-02-14T01:50:20.024Z,94281.57
2018-02-14T01:52:47.605Z,94284.56
2018-02-14T01:55:15.150Z,94281.77
2018-02-14T01:57:42.802Z,94272.72
2018-02-14T02:00:10.594Z,94270.88
2018-02-14T02:02:38.342Z,94272.32
2018-02-14T02:05:06.230Z,94276.36
2018-02-14T02:07:33.839Z,94284.03
2018-02-14T02:10:01.493Z,94279.56
2018-02-14T02:12:29.105Z,94275.70
2018-02-14T02:14:56.720Z,94273.40
2018-02-14T02:17:24.295Z,94274.58
2018-02-14T02:19:51.962Z,94277.47
2018-02-14T02:22:19.715Z,94263.91
2018-02-14T02:24:47.303Z,94268.11
2018-02-14T02:27:15.290Z,94270.80
2018-02-14T02:29:42.911Z,94263.55
2018-02-14T02:32:10.525Z,94267.07
2018-02-14T02:34:38.349Z,94269.10
2018-02-14T02:37:05.878Z,94273.01
2018-02-14T02:39:45.892Z,94267.63
2018-02-14T02:42:13.669Z,94276.32
2018-02-14T02:44:41.486Z,94279.47
2018-02-14T02:47:09.082Z,94269.76
2018-02-14T02:49:36.681Z,94263.46
2018-02-14T02:52:04.441Z,94267.50
2018-02-14T02:54:32.330Z,94260.94
2018-02-14T02:56:59.951Z,94258.44
2018-02-14T02:59:27.733Z,94264.94
2018-02-14T03:01:55.336Z,94267.07
2018-02-14T03:04:23.204Z,94264.77
2018-02-14T03:06:50.811Z,94270.12
2018-02-14T03:09:18.407Z,94270.94
2018-02-14T03:11:46.153Z,94260.91
2018-02-14T03:14:13.897Z,94266.94
2018-02-14T03:16:41.759Z,94258.70
2018-02-14T03:19:09.379Z,94263.30
2018-02-14T03:21:37.160Z,94268.64
2018-02-14T03:24:04.715Z,94275.67
2018-02-14T03:26:32.529Z,94275.67
2018-02-14T03:29:00.143Z,94271.17
2018-02-14T03:31:27.768Z,94233.52
2018-02-14T03:33:55.369Z,94268.58
2018-02-14T03:36:23.115Z,94277.53
2018-02-14T03:38:50.680Z,94255.03
2018-02-14T03:41:18.453Z,94268.41
2018-02-14T03:43:46.214Z,94269.98
2018-02-14T03:46:13.883Z,94266.55
2018-02-14T03:48:41.621Z,94268.19
2018-02-14T03:51:09.413Z,94266.28
2018-02-14T03:53:37.171Z,94261.30
2018-02-14T03:56:04.751Z,94258.20
2018-02-14T03:58:32.535Z,94259.26
2018-02-14T04:01:00.299Z,94254.08
2018-02-14T04:03:28.126Z,94245.25
2018-02-14T04:05:55.681Z,94249.19
2018-02-14T04:08:23.235Z,94234.35
2018-02-14T04:10:50.835Z,94211.71
2018-02-14T04:13:18.456Z,94252.10
2018-02-14T04:15:46.046Z,94257.13
2018-02-14T04:18:13.835Z,94258.47
2018-02-14T04:20:41.585Z,94262.22
2018-02-14T04:23:09.208Z,94252.59
2018-02-14T04:25:36.974Z,94252.44
2018-02-14T04:31:04.427Z,94255.88
2018-02-14T04:33:32.237Z,94253.55
2018-02-14T04:35:59.829Z,94252.66
2018-02-14T04:38:27.395Z,94252.99
2018-02-14T04:40:55.556Z,94261.69
2018-02-14T04:43:23.532Z,94273.53
2018-02-14T04:45:51.083Z,94260.77
2018-02-14T04:48:18.858Z,94263.39
2018-02-14T04:50:46.454Z,94268.15
2018-02-14T04:53:14.046Z,94260.34
2018-02-14T04:55:41.868Z,94262.17
2018-02-14T04:58:09.438Z,94260.47
2018-02-14T05:00:37.059Z,94263.55
2018-02-14T05:03:04.673Z,94259.98
2018-02-14T05:05:32.515Z,94265.98
2018-02-14T05:08:00.079Z,94259.06
2018-02-14T05:10:27.848Z,94263.17
2018-02-14T05:12:55.464Z,94274.72
2018-02-14T05:15:23.297Z,94280.03
2018-02-14T05:17:50.886Z,94288.73
2018-02-14T05:20:18.476Z,94282.72
2018-02-14T05:22:46.128Z,94279.31
2018-02-14T05:25:13.673Z,94286.20
2018-02-14T05:27:41.221Z,94286.86
2018-02-14T05:30:08.837Z,94285.82
2018-02-14T05:32:36.955Z,94291.63
2018-02-14T05:35:04.515Z,94284.63
2018-02-14T05:37:32.062Z,94296.55
2018-02-14T05:39:59.748Z,94291.47
2018-02-14T05:42:27.302Z,94303.52
2018-02-14T05:44:55.184Z,94314.30
2018-02-14T05:47:22.725Z,94320.73
2018-02-14T05:49:50.498Z,94324.73
2018-02-14T05:52:18.017Z,94328.28
2018-02-14T05:54:45.865Z,94336.45
2018-02-14T05:57:13.461Z,94336.10
2018-02-14T05:59:41.054Z,94347.28
2018-02-14T06:02:08.640Z,94354.24
2018-02-14T06:04:36.169Z,94366.59
2018-02-14T06:07:03.865Z,94364.22
2018-02-14T06:09:31.648Z,94379.92
2018-02-14T06:11:59.195Z,94384.81
2018-02-14T06:14:26.749Z,94394.05
2018-02-14T06:16:54.271Z,94399.50
2018-02-14T06:19:21.821Z,94401.41
2018-02-14T06:21:49.346Z,94409.30
2018-02-14T06:24:16.876Z,94406.17
2018-02-14T06:26:44.561Z,94408.98
2018-02-14T06:29:12.078Z,94415.03
2018-02-14T06:31:39.630Z,94420.66
2018-02-14T06:34:07.173Z,94424.02
2018-02-14T06:36:34.716Z,94426.48
2018-02-14T06:39:02.229Z,94437.78
2018-02-14T06:41:30.175Z,94437.58
2018-02-14T06:43:57.999Z,94457.19
2018-02-14T06:46:25.513Z,94461.24
2018-02-14T06:48:53.029Z,94454.87
2018-02-14T06:51:20.592Z,94462.39
2018-02-14T06:53:48.131Z,94470.72
2018-02-14T06:56:15.711Z,94466.44
2018-02-14T06:58:43.234Z,94475.80
2018-02-14T07:01:10.909Z,94456.05
2018-02-14T07:03:38.693Z,94485.86
2018-02-14T07:06:06.252Z,94487.38
2018-02-14T07:08:33.762Z,94478.55
2018-02-14T07:11:01.500Z,94508.13
2018-02-14T07:13:29.363Z,94499.52
2018-02-14T07:15:57.146Z,94495.71
2018-02-14T07:18:24.806Z,94497.00
2018-02-14T07:20:52.342Z,94511.62
2018-02-14T07:23:25.475Z,94524.52
2018-02-14T07:25:53.056Z,94526.20
2018-02-14T07:28:20.970Z,94518.75
2018-02-14T07:30:48.897Z,94524.23
2018-02-14T07:33:16.416Z,94531.92
2018-02-14T07:35:43.947Z,94527.65
2018-02-14T07:38:11.497Z,94543.95
2018-02-14T07:40:39.140Z,94533.31
2018-02-14T07:43:06.793Z,94546.81
2018-02-14T07:45:34.357Z,94542.31
2018-02-14T07:48:01.899Z,94556.88
2018-02-14T07:50:29.452Z,94556.38
2018-02-14T07:52:56.978Z,94559.55
2018-02-14T07:55:24.515Z,94562.97
2018-02-14T07:57:52.056Z,94557.21
2018-02-14T08:00:19.969Z,94576.13
2018-02-14T08:02:47.481Z,94580.40
2018-02-14T08:05:15.871Z,94581.83
2018-02-14T08:07:43.419Z,94579.67
2018-02-14T08:10:10.971Z,94576.47
2018-02-14T08:12:38.533Z,94586.17
2018-02-14T08:15:06.067Z,94589.22
2018-02-14T08:17:33.628Z,94591.58
2018-02-14T08:20:01.173Z,94597.25
2018-02-14T08:22:28.734Z,94596.56
2018-02-14T08:24:56.270Z,94599.38
2018-02-14T08:27:24.134Z,94601.78
2018-02-14T08:29:51.815Z,94602.50
2018-02-14T08:32:19.672Z,94600.38
2018-02-14T08:34:47.242Z,94602.65
2018-02-14T08:37:14.762Z,94615.67
2018-02-14T08:39:42.345Z,94614.09
2018-02-14T08:42:09.890Z,94625.70
2018-02-14T08:44:37.435Z,94618.97
2018-02-14T08:47:04.970Z,94629.83
2018-02-14T08:49:32.788Z,94634.55
2018-02-14T08:52:00.302Z,94649.05
2018-02-14T08:54:27.961Z,94647.58
2018-02-14T08:56:55.526Z,94653.42
2018-02-14T08:59:23.056Z,94651.70
2018-02-14T09:01:50.608Z,94659.47
2018-02-14T09:04:18.151Z,94675.73
2018-02-14T09:06:45.912Z,94673.59
2018-02-14T09:09:13.467Z,94665.72
2018-02-14T09:11:41.018Z,94668.36
2018-02-14T09:14:08.537Z,94670.27
2018-02-14T09:16:36.088Z,94675.77
2018-02-14T09:19:03.675Z,94684.45
2018-02-14T09:21:31.254Z,94679.78
2018-02-14T09:23:58.847Z,94694.75
2018-02-14T09:26:26.379Z,94691.32
2018-02-14T09:28:53.912Z,94692.34
2018-02-14T09:31:21.487Z,94699.59
2018-02-14T09:33:49.345Z,94692.10
2018-02-14T09:36:17.331Z,94697.21
2018-02-14T09:38:44.940Z,94705.34
2018-02-14T09:41:12.507Z,94711.63
2018-02-14T09:43:40.042Z,94693.98
2018-02-14T09:46:07.593Z,94707.19
2018-02-14T09:48:35.164Z,94711.28
2018-02-14T09:51:02.725Z,94704.66
2018-02-14T09:53:30.263Z,94713.34
2018-02-14T09:55:57.938Z,94708.27
2018-02-14T09:58:25.462Z,94709.63
2018-02-14T10:00:53.516Z,94721.01
2018-02-14T10:03:21.265Z,94711.70
2018-02-14T10:05:49.075Z,94702.83
2018-02-14T10:08:16.825Z,94709.94
2018-02-14T10:10:44.781Z,94719.22
2018-02-14T10:13:12.371Z,94715.44
2018-02-14T10:15:40.161Z,94723.84
2018-02-14T10:18:07.913Z,94716.73
2018-02-14T10:20:35.451Z,94719.20
2018-02-14T10:23:03.222Z,94711.31
2018-02-14T10:25:30.954Z,94719.31
2018-02-14T10:27:58.498Z,94719.75
2018-02-14T10:30:26.051Z,94729.26
2018-02-14T10:32:54.697Z,94711.55
2018-02-14T10:35:22.246Z,94703.31
2018-02-14T10:37:50.035Z,94709.40
2018-02-14T10:40:17.554Z,94708.09
2018-02-14T10:42:45.103Z,94696.54
2018-02-14T10:45:12.673Z,94700.08
2018-02-14T10:47:40.212Z,94699.58
2018-02-14T10:50:07.737Z,94710.53
2018-02-14T10:52:35.281Z,94706.30
2018-02-14T10:55:02.801Z,94705.41
2018-02-14T10:57:30.320Z,94699.58
2018-02-14T10:59:57.979Z,94696.35
2018-02-14T11:02:25.562Z,94706.00
2018-02-14T11:04:58.682Z,94709.49
2018-02-14T11:07:26.286Z,94703.71
2018-02-14T11:09:53.809Z,94705.87
2018-02-14T11:12:21.600Z,94723.47
2018-02-14T11:14:49.166Z,94728.55
2018-02-14T11:17:16.740Z,94722.80
2018-02-14T11:19:44.276Z,94716.56
2018-02-14T11:22:11.820Z,94726.16
2018-02-14T11:24:39.363Z,94730.99
2018-02-14T11:27:06.886Z,94731.89
2018-02-14T11:29:34.470Z,94730.70
2018-02-14T11:32:02.038Z,94746.14
2018-02-14T11:34:29.552Z,94736.66
2018-02-14T11:36:57.234Z,94746.05
2018-02-14T11:39:24.793Z,94738.05
2018-02-14T11:41:52.371Z,94732.72
2018-02-14T11:44:19.957Z,94749.53
2018-02-14T11:46:47.528Z,94724.74
2018-02-14T11:49:15.086Z,94734.69
2018-02-14T11:51:42.676Z,94750.16
2018-02-14T11:54:10.226Z,94755.23
2018-02-14T11:56:37.785Z,94760.25
2018-02-14T11:59:05.525Z,94752.78
2018-02-14T12:01:33.119Z,94776.02
2018-02-14T12:04:00.658Z,94769.99
2018-02-14T12:06:28.406Z,94766.72
2018-02-14T12:08:55.980Z,94766.83
2018-02-14T12:11:23.549Z,94770.08
2018-02-14T12:13:51.076Z,94778.02
2018-02-14T12:16:18.671Z,94769.62
2018-02-14T12:18:46.324Z,94780.09
2018-02-14T12:21:13.845Z,94780.56
2018-02-14T12:23:41.422Z,94784.67
2018-02-14T12:26:08.945Z,94784.28
2018-02-14T12:28:36.483Z,94788.59
2018-02-14T12:31:04.070Z,94794.80
2018-02-14T12:33:31.628Z,94798.03
2018-02-14T12:35:59.141Z,94800.24
2018-02-14T12:38:26.699Z,94811.14
2018-02-14T12:40:54.231Z,94809.32
2018-02-14T12:43:21.742Z,94805.25
2018-02-14T12:45:49.308Z,94816.09
2018-02-14T12:48:16.850Z,94814.80
2018-02-14T12:50:44.411Z,94810.29
2018-02-14T12:53:12.181Z,94816.69
2018-02-14T12:55:39.718Z,94819.98
2018-02-14T12:58:07.262Z,94834.96
2018-02-14T13:00:34.806Z,94832.31
2018-02-14T13:03:02.345Z,94825.44
2018-02-14T13:05:29.861Z,94836.53
2018-02-14T13:07:57.425Z,94834.27
2018-02-14T13:10:24.947Z,94838.86
2018-02-14T13:12:52.509Z,94845.28
2018-02-14T13:15:20.115Z,94843.06
2018-02-14T13:17:48.635Z,94853.94
2018-02-14T13:20:16.163Z,94856.23
2018-02-14T13:22:43.767Z,94842.72
2018-02-14T13:25:11.633Z,94852.93
2018-02-14T13:27:40.710Z,94855.61
2018-02-14T13:30:08.654Z,94862.53
2018-02-14T13:32:36.941Z,94865.25
2018-02-14T13:35:05.054Z,94878.53
2018-02-14T13:37:32.800Z,94882.08
2018-02-14T13:40:00.332Z,94875.87
2018-02-14T13:42:28.449Z,94875.87
2018-02-14T13:44:56.164Z,94879.97
2018-02-14T13:47:23.718Z,94884.66
2018-02-14T13:49:52.169Z,94875.86
2018-02-14T13:52:24.536Z,94882.78
2018-02-14T13:54:53.212Z,94892.89
2018-02-14T13:57:20.849Z,94893.84
2018-02-14T13:59:48.381Z,94897.39
2018-02-14T14:02:15.961Z,94887.20
2018-02-14T14:04:43.489Z,94897.76
2018-02-14T14:07:11.098Z,94891.69
2018-02-14T14:09:38.660Z,94894.59
2018-02-14T14:12:06.186Z,94897.88
2018-02-14T14:14:33.724Z,94906.59
2018-02-14T14:17:01.400Z,94914.13
2018-02-14T14:19:28.942Z,94915.52
2018-02-14T14:21:56.460Z,94926.55
2018-02-14T14:24:23.979Z,94926.59
2018-02-14T14:26:51.907Z,94926.83
2018-02-14T14:29:19.496Z,94941.32
2018-02-14T14:31:47.032Z,94950.27
2018-02-14T14:34:14.590Z,94952.17
2018-02-14T14:36:42.157Z,94951.38
2018-02-14T14:39:09.716Z,94955.11
2018-02-14T14:41:37.244Z,94962.69
2018-02-14T14:44:05.030Z,94954.23
2018-02-14T14:46:32.559Z,94942.81
2018-02-14T14:49:00.102Z,94948.36
2018-02-14T14:51:27.669Z,94960.83
2018-02-14T14:53:55.306Z,94955.66
2018-02-14T14:56:22.855Z,94965.27
2018-02-14T14:58:50.393Z,94964.52
2018-02-14T15:01:17.967Z,94969.87
2018-02-14T15:03:45.798Z,94975.45
2018-02-14T15:06:13.337Z,94967.23
2018-02-14T15:08:40.871Z,94968.57
2018-02-14T15:11:08.400Z,94974.60
2018-02-14T15:13:35.930Z,94990.50
2018-02-14T15:16:03.445Z,95002.50
2018-02-14T15:18:30.979Z,94993.84
2018-02-14T15:20:58.512Z,94985.37
2018-02-14T15:23:26.195Z,94984.11
2018-02-14T15:25:53.705Z,94979.45
2018-02-14T15:28:22.061Z,94993.11
2018-02-14T15:30:49.654Z,94982.84
2018-02-14T15:33:17.205Z,94996.89
2018-02-14T15:35:44.730Z,94998.97
2018-02-14T15:38:12.312Z,95010.96
2018-02-14T15:40:40.087Z,95008.42
2018-02-14T15:43:07.625Z,95020.55
2018-02-14T15:45:35.964Z,95027.16
2018-02-14T15:48:03.660Z,95017.47
2018-02-14T15:50:31.348Z,95022.98
2018-02-14T15:52:59.179Z,95020.19
2018-02-14T15:55:26.781Z,95023.09
2018-02-14T15:57:54.458Z,95028.50
2018-02-14T16:00:22.017Z,95022.80
2018-02-14T16:02:49.547Z,95027.16
2018-02-14T16:05:17.131Z,95033.23
2018-02-14T16:07:44.685Z,95033.88
2018-02-14T16:10:13.013Z,95045.31
2018-02-14T16:12:41.391Z,95033.54
2018-02-14T16:15:08.999Z,95042.23
2018-02-14T16:17:36.576Z,95051.44
2018-02-14T16:20:04.122Z,95051.66
2018-02-14T16:22:31.684Z,95054.34
2018-02-14T16:24:59.265Z,95057.64
2018-02-14T16:27:26.931Z,95058.83
2018-02-14T16:29:54.458Z,95062.88
2018-02-14T16:32:22.011Z,95067.29
2018-02-14T16:34:49.543Z,95067.91
2018-02-14T16:37:17.106Z,95065.69
2018-02-14T16:39:44.650Z,95068.77
2018-02-14T16:42:12.188Z,95066.10
2018-02-14T16:44:40.153Z,95048.63
2018-02-14T16:47:07.958Z,95074.94
2018-02-14T16:49:35.732Z,95068.38
2018-02-14T16:52:03.343Z,95072.13
2018-02-14T16:54:30.871Z,95070.30
2018-02-14T16:56:58.472Z,95059.33
2018-02-14T16:59:26.046Z,95071.98
2018-02-14T17:01:53.927Z,95070.81
2018-02-14T17:04:21.487Z,95069.39
2018-02-14T17:06:49.285Z,95081.18
2018-02-14T17:09:16.840Z,95068.86
2018-02-14T17:11:44.463Z,95080.62
2018-02-14T17:14:12.039Z,95081.89
2018-02-14T17:16:39.596Z,95084.75
2018-02-14T17:19:07.425Z,95081.89
2018-02-14T17:21:34.957Z,95071.93
2018-02-14T17:24:02.559Z,95090.57
2018-02-14T17:26:30.437Z,95089.20
2018-02-14T17:28:58.178Z,95086.23
2018-02-14T17:31:26.145Z,95077.23
2018-02-14T17:33:53.726Z,95095.22
2018-02-14T17:36:22.205Z,95095.40
2018-02-14T17:38:49.948Z,95104.27
2018-02-14T17:41:17.502Z,95089.91
2018-02-14T17:43:46.288Z,95104.81
2018-02-14T17:46:16.035Z,95095.03
2018-02-14T17:48:44.962Z,95100.17
2018-02-14T17:51:13.191Z,95102.91
2018-02-14T17:53:40.949Z,95108.59
2018-02-14T17:56:08.597Z,95107.48
2018-02-14T17:58:36.207Z,95109.64
2018-02-14T18:01:04.852Z,95112.94
2018-02-14T18:03:32.691Z,95111.45
2018-02-14T18:06:00.443Z,95110.66
2018-02-14T18:08:28.668Z,95106.80
2018-02-14T18:10:56.709Z,95123.52
2018-02-14T18:13:24.709Z,95123.52
2018-02-14T18:15:52.618Z,95118.64
2018-02-14T18:18:21.217Z,95125.19
2018-02-14T18:20:49.905Z,95127.33
2018-02-14T18:23:21.336Z,95115.23
2018-02-14T18:25:49.161Z,95150.64
2018-02-14T18:28:16.807Z,95134.44
2018-02-14T18:30:44.362Z,95127.83
2018-02-14T18:33:12.107Z,95101.95
2018-02-14T18:35:40.034Z,95137.93
2018-02-14T18:38:07.676Z,95143.41
2018-02-14T18:40:36.010Z,95147.06
2018-02-14T18:43:03.742Z,95153.15
2018-02-14T18:45:32.695Z,95166.68
2018-02-14T18:48:00.902Z,95160.47
2018-02-14T18:50:29.002Z,95164.26
2018-02-14T18:52:57.054Z,95162.10
2018-02-14T18:55:24.860Z,95174.36
2018-02-14T18:57:52.626Z,95177.27
2018-02-14T19:00:20.282Z,95176.89
2018-02-14T19:02:47.966Z,95174.08
2018-02-14T19:05:16.224Z,95183.04
2018-02-14T19:07:44.254Z,95174.94
2018-02-14T19:10:12.476Z,95172.38
2018-02-14T19:12:40.490Z,95171.63
2018-02-14T19:15:08.703Z,95180.28
2018-02-14T19:17:36.568Z,95189.96
2018-02-14T19:20:04.402Z,95183.02
2018-02-14T19:22:32.490Z,95184.35
2018-02-14T19:25:01.845Z,95191.66
2018-02-14T19:27:29.848Z,95198.52
2018-02-14T19:29:57.594Z,95194.25
2018-02-14T19:32:25.253Z,95204.31
2018-02-14T19:34:52.896Z,95210.07
2018-02-14T19:37:20.779Z,95207.70
2018-02-14T19:39:48.550Z,95208.02
2018-02-14T19:42:16.889Z,95203.50
2018-02-14T19:44:44.759Z,95219.36
2018-02-14T19:47:12.453Z,95222.19
2018-02-14T19:49:40.423Z,95217.48
2018-02-14T19:52:09.732Z,95218.15
2018-02-14T19:54:37.963Z,95220.91
2018-02-14T19:57:07.509Z,95226.50
2018-02-14T19:59:36.544Z,95221.06
2018-02-14T20:02:05.644Z,95221.20
2018-02-14T20:04:34.460Z,95224.56
2018-02-14T20:07:02.358Z,95238.47
2018-02-14T20:09:30.477Z,95242.77
2018-02-14T20:11:59.220Z,95239.07
2018-02-14T20:14:27.487Z,95246.25
2018-02-14T20:16:55.255Z,95234.91
2018-02-14T20:19:24.267Z,95230.89
2018-02-14T20:21:53.480Z,95217.52
2018-02-14T20:24:21.940Z,95230.78
2018-02-14T20:26:51.091Z,95230.98
2018-02-14T20:29:19.156Z,95231.18
2018-02-14T20:31:47.639Z,95229.92
2018-02-14T20:34:15.680Z,95220.27
2018-02-14T20:36:43.346Z,95225.14
2018-02-14T20:39:10.913Z,95223.48
2018-02-14T20:41:41.341Z,95216.53
2018-02-14T20:44:10.025Z,95223.34
2018-02-14T20:46:38.176Z,95232.54
2018-02-14T20:49:06.004Z,95233.00
2018-02-14T20:51:33.896Z,95229.05
2018-02-14T20:54:01.478Z,95229.92
2018-02-14T20:56:29.941Z,95234.92
2018-02-14T20:58:58.288Z,95233.69
2018-02-14T21:01:25.896Z,95229.96
2018-02-14T21:03:53.727Z,95224.61
2018-02-14T21:06:21.492Z,95217.61
2018-02-14T21:08:49.037Z,95238.52
2018-02-14T21:11:16.577Z,95236.69
2018-02-14T21:13:44.676Z,95238.27
2018-02-14T21:16:12.214Z,95234.25
2018-02-14T21:18:39.898Z,95238.27
2018-02-14T21:21:07.672Z,95231.94
2018-02-14T21:23:35.427Z,95232.34
2018-02-14T21:26:03.813Z,95230.69
2018-02-14T21:28:31.585Z,95228.16
2018-02-14T21:30:59.260Z,95229.09
2018-02-14T21:33:26.807Z,95231.03
2018-02-14T21:35:54.624Z,95237.38
2018-02-14T21:38:22.196Z,95226.11
2018-02-14T21:40:49.739Z,95240.17
2018-02-14T21:43:17.320Z,95238.89
2018-02-14T21:45:44.869Z,95244.39
2018-02-14T21:48:12.414Z,95243.51
2018-02-14T21:50:40.187Z,95238.27
2018-02-14T21:53:07.726Z,95252.56
2018-02-14T21:55:35.274Z,95242.59
2018-02-14T21:58:02.799Z,95257.15
2018-02-14T22:00:30.370Z,95255.02
2018-02-14T22:02:57.924Z,95260.20
2018-02-14T22:05:25.505Z,95245.36
2018-02-14T22:11:23.382Z,95251.91
2018-02-14T22:13:57.722Z,95245.90
2018-02-14T22:16:25.541Z,95252.87
2018-02-14T22:18:53.176Z,95255.70
2018-02-14T22:21:20.788Z,95258.43
2018-02-14T22:23:48.363Z,95251.30
2018-02-14T22:26:15.959Z,95259.00
2018-02-14T22:28:43.603Z,95270.16
2018-02-14T22:31:11.279Z,95263.07
2018-02-14T22:33:38.844Z,95267.63
2018-02-14T22:36:06.459Z,95263.33
2018-02-14T22:38:34.141Z,95270.90
2018-02-14T22:41:01.727Z,95273.97
2018-02-14T22:43:29.303Z,95273.44
2018-02-14T22:45:56.837Z,95269.25
2018-02-14T22:48:24.470Z,95250.66
2018-02-14T22:50:52.060Z,95256.58
2018-02-14T22:53:19.648Z,95241.23
2018-02-14T22:55:47.218Z,95236.19
2018-02-14T22:58:14.758Z,95239.78
2018-02-14T23:00:42.387Z,95238.92
2018-02-14T23:03:09.919Z,95240.72
2018-02-14T23:05:37.437Z,95235.45
2018-02-14T23:08:04.975Z,95257.34
2018-02-14T23:10:32.630Z,95251.30
2018-02-14T23:13:00.233Z,95251.16
2018-02-14T23:15:28.134Z,95243.88
2018-02-14T23:17:55.667Z,95255.46
2018-02-14T23:20:24.701Z,95265.54
2018-02-14T23:22:52.328Z,95277.04
2018-02-14T23:25:19.865Z,95276.84
2018-02-14T23:27:47.410Z,95279.72
2018-02-14T23:30:14.975Z,95283.87
2018-02-14T23:32:42.494Z,95289.22
2018-02-14T23:35:10.031Z,95282.14
2018-02-14T23:37:37.585Z,95282.84
2018-02-14T23:40:05.122Z,95283.13
2018-02-14T23:42:32.676Z,95295.63
2018-02-14T23:45:00.235Z,95298.92
2018-02-14T23:47:27.753Z,95297.02
2018-02-14T23:49:55.296Z,95301.42
2018-02-14T23:52:22.842Z,95310.89
2018-02-14T23:54:50.382Z,95317.05
2018-02-14T23:57:17.947Z,95324.05
2018-02-14T23:59:45.479Z,95325.97
